createdAt,value
2023-02-28T00:01:02.855Z,7.10
2023-02-28T00:03:36.518Z,7.50
2023-02-28T00:06:10.644Z,7.10
2023-02-28T00:08:43.357Z,6.70
2023-02-28T00:11:17.092Z,7.50
2023-02-28T00:13:50.717Z,7.40
2023-02-28T00:16:24.818Z,6.90
2023-02-28T00:18:57.751Z,6.90
2023-02-28T00:21:31.044Z,6.90
2023-02-28T00:24:04.121Z,7.30
2023-02-28T00:26:38.085Z,7.00
2023-02-28T00:29:11.292Z,9.10
2023-02-28T00:31:44.791Z,7.50
2023-02-28T00:34:18.147Z,6.80
2023-02-28T00:36:51.328Z,7.00
2023-02-28T00:39:24.370Z,7.00
2023-02-28T00:41:58.966Z,6.00
2023-02-28T00:44:31.937Z,6.30
2023-02-28T00:47:04.823Z,6.80
2023-02-28T00:49:37.614Z,6.70
2023-02-28T00:52:10.636Z,6.60
2023-02-28T00:54:43.466Z,6.60
2023-02-28T00:57:16.373Z,6.30
2023-02-28T00:59:49.038Z,6.70
2023-02-28T01:02:22.143Z,7.10
2023-02-28T01:04:58.146Z,7.20
2023-02-28T01:07:31.795Z,6.60
2023-02-28T01:10:04.666Z,7.70
2023-02-28T01:12:38.579Z,8.10
2023-02-28T01:15:14.171Z,8.50
2023-02-28T01:17:47.161Z,8.10
2023-02-28T01:20:20.913Z,7.10
2023-02-28T01:22:53.724Z,8.00
2023-02-28T01:25:26.529Z,7.00
2023-02-28T01:27:59.732Z,7.70
2023-02-28T01:30:37.067Z,8.60
2023-02-28T01:33:11.186Z,8.60
2023-02-28T01:35:44.130Z,10.90
2023-02-28T01:38:22.505Z,7.90
2023-02-28T01:40:56.604Z,8.50
2023-02-28T01:43:32.944Z,8.70
2023-02-28T01:46:06.159Z,11.60
2023-02-28T01:48:39.682Z,10.60
2023-02-28T01:51:13.926Z,10.30
2023-02-28T01:53:52.119Z,9.70
2023-02-28T01:56:28.075Z,9.60
2023-02-28T01:59:01.596Z,10.20
2023-02-28T02:01:34.749Z,13.30
2023-02-28T02:04:07.830Z,11.60
2023-02-28T02:06:42.656Z,13.20
2023-02-28T02:09:16.649Z,11.90
2023-02-28T02:11:50.155Z,13.00
2023-02-28T02:14:49.234Z,16.20
2023-02-28T02:17:27.860Z,15.30
2023-02-28T02:20:39.440Z,17.00
2023-02-28T02:23:40.231Z,17.60
2023-02-28T02:26:37.883Z,19.00
2023-02-28T02:29:33.195Z,18.70
2023-02-28T02:32:21.352Z,22.70
2023-02-28T02:34:59.544Z,23.40
2023-02-28T02:37:39.040Z,23.90
2023-02-28T02:40:16.002Z,21.30
2023-02-28T02:42:53.536Z,25.20
2023-02-28T02:45:37.010Z,23.40
2023-02-28T02:48:11.086Z,22.50
2023-02-28T02:50:46.067Z,19.50
2023-02-28T02:53:20.429Z,23.80
2023-02-28T02:55:55.687Z,24.20
2023-02-28T02:58:31.754Z,25.70
2023-02-28T03:01:05.521Z,28.70
2023-02-28T03:03:39.581Z,28.40
2023-02-28T03:06:12.836Z,25.20
2023-02-28T03:08:46.918Z,31.30
2023-02-28T03:11:21.925Z,29.60
2023-02-28T03:14:17.134Z,29.40
2023-02-28T03:17:00.087Z,28.80
2023-02-28T03:19:50.413Z,29.10
2023-02-28T03:22:32.873Z,34.20
2023-02-28T03:25:09.249Z,36.20
2023-02-28T03:27:44.011Z,39.50
2023-02-28T03:30:23.046Z,35.50
2023-02-28T03:32:59.062Z,37.20
2023-02-28T03:35:33.507Z,34.80
2023-02-28T03:38:10.225Z,34.10
2023-02-28T03:40:46.983Z,36.50
2023-02-28T03:43:22.693Z,36.40
2023-02-28T03:45:56.187Z,37.20
2023-02-28T03:48:32.781Z,35.60
2023-02-28T03:51:06.079Z,33.70
2023-02-28T03:53:40.444Z,35.20
2023-02-28T03:56:16.742Z,34.70
2023-02-28T03:58:52.365Z,32.90
2023-02-28T04:01:28.269Z,36.20
2023-02-28T04:04:01.663Z,35.60
2023-02-28T04:06:35.165Z,35.90
2023-02-28T04:09:09.166Z,40.70
2023-02-28T04:11:46.302Z,39.20
2023-02-28T04:14:19.562Z,41.50
2023-02-28T04:16:53.609Z,42.40
2023-02-28T04:19:26.803Z,39.50
2023-02-28T04:22:00.143Z,35.00
2023-02-28T04:24:33.088Z,37.50
2023-02-28T04:27:07.748Z,37.10
2023-02-28T04:29:40.844Z,33.90
2023-02-28T04:32:14.133Z,36.20
2023-02-28T04:34:48.376Z,37.40
2023-02-28T04:37:21.666Z,35.00
2023-02-28T04:39:55.772Z,40.30
2023-02-28T04:42:28.601Z,43.00
2023-02-28T04:45:01.316Z,42.20
2023-02-28T04:47:34.380Z,39.60
2023-02-28T04:50:07.741Z,42.90
2023-02-28T04:52:42.472Z,33.10
2023-02-28T04:55:15.843Z,35.80
2023-02-28T04:57:48.636Z,33.60
2023-02-28T05:00:22.866Z,35.20
2023-02-28T05:02:55.887Z,34.60
2023-02-28T05:05:30.240Z,37.00
2023-02-28T05:08:03.366Z,36.30
2023-02-28T05:10:36.266Z,35.50
2023-02-28T05:13:11.607Z,37.40
2023-02-28T05:15:44.993Z,37.90
2023-02-28T05:18:18.784Z,45.20
2023-02-28T05:20:51.657Z,44.80
2023-02-28T05:23:25.025Z,38.10
2023-02-28T05:25:58.366Z,35.40
2023-02-28T05:28:32.255Z,39.60
2023-02-28T05:31:05.727Z,38.90
2023-02-28T05:33:39.092Z,40.30
2023-02-28T05:36:12.934Z,39.80
2023-02-28T05:38:46.758Z,39.90
2023-02-28T05:41:23.378Z,40.10
2023-02-28T05:43:56.848Z,41.80
2023-02-28T05:46:29.851Z,39.70
2023-02-28T05:49:03.802Z,41.60
2023-02-28T05:51:37.522Z,42.50
2023-02-28T05:54:13.897Z,39.60
2023-02-28T05:56:49.316Z,41.00
2023-02-28T05:59:22.746Z,43.50
2023-02-28T06:01:56.631Z,42.50
2023-02-28T06:04:32.097Z,45.40
2023-02-28T06:07:08.482Z,45.00
2023-02-28T06:09:45.975Z,45.80
2023-02-28T06:12:19.052Z,46.50
2023-02-28T06:14:52.473Z,52.70
2023-02-28T06:17:31.358Z,53.10
2023-02-28T06:20:04.320Z,56.50
2023-02-28T06:22:40.670Z,52.40
2023-02-28T06:25:14.749Z,46.00
2023-02-28T06:27:49.275Z,47.90
2023-02-28T06:30:25.144Z,41.70
2023-02-28T06:32:58.498Z,45.60
2023-02-28T06:35:32.269Z,53.10
2023-02-28T06:38:05.637Z,46.00
2023-02-28T06:40:39.580Z,44.50
2023-02-28T06:43:14.596Z,46.60
2023-02-28T06:45:48.461Z,42.60
2023-02-28T06:48:27.948Z,39.40
2023-02-28T06:51:08.396Z,44.00
2023-02-28T06:53:41.869Z,46.30
2023-02-28T06:56:16.493Z,38.20
2023-02-28T06:58:51.687Z,43.00
2023-02-28T07:01:25.779Z,47.50
2023-02-28T07:03:58.844Z,38.80
2023-02-28T07:06:31.752Z,38.10
2023-02-28T07:09:06.460Z,45.00
2023-02-28T07:11:39.323Z,42.40
2023-02-28T07:14:12.612Z,46.70
2023-02-28T07:16:47.438Z,45.70
2023-02-28T07:19:21.479Z,38.10
2023-02-28T07:21:54.869Z,38.60
2023-02-28T07:24:30.277Z,40.10
2023-02-28T07:27:04.440Z,42.10
2023-02-28T07:29:38.549Z,37.50
2023-02-28T07:32:11.851Z,36.40
2023-02-28T07:34:45.892Z,37.30
2023-02-28T07:37:22.170Z,35.80
2023-02-28T07:39:55.932Z,31.60
2023-02-28T07:42:29.187Z,33.80
2023-02-28T07:45:02.408Z,34.60
2023-02-28T07:47:35.523Z,36.60
2023-02-28T07:50:11.617Z,35.00
2023-02-28T07:52:44.670Z,33.20
2023-02-28T07:55:18.221Z,29.40
2023-02-28T07:57:50.988Z,30.80
2023-02-28T08:00:25.488Z,33.00
2023-02-28T08:02:59.392Z,31.30
2023-02-28T08:05:32.538Z,26.10
2023-02-28T08:08:05.571Z,24.50
2023-02-28T08:10:39.911Z,27.70
2023-02-28T08:13:13.232Z,25.00
2023-02-28T08:15:50.887Z,23.00
2023-02-28T08:18:25.054Z,24.60
2023-02-28T08:20:58.781Z,22.50
2023-02-28T08:23:32.462Z,21.20
2023-02-28T08:26:06.105Z,20.30
2023-02-28T08:28:39.993Z,22.80
2023-02-28T08:31:14.955Z,20.00
2023-02-28T08:33:54.458Z,19.30
2023-02-28T08:36:29.960Z,19.30
2023-02-28T08:39:03.026Z,16.20
2023-02-28T08:41:36.032Z,16.00
2023-02-28T08:44:09.322Z,16.00
2023-02-28T08:46:42.662Z,17.30
2023-02-28T08:49:15.647Z,20.00
2023-02-28T08:51:49.408Z,18.20
2023-02-28T08:54:24.249Z,16.90
2023-02-28T08:56:57.680Z,16.00
2023-02-28T08:59:30.761Z,16.10
2023-02-28T09:02:07.889Z,19.30
2023-02-28T09:04:43.096Z,14.90
2023-02-28T09:07:15.834Z,13.90
2023-02-28T09:09:56.781Z,14.20
2023-02-28T09:12:30.175Z,15.20
2023-02-28T09:15:03.361Z,14.50
2023-02-28T09:17:37.099Z,14.70
2023-02-28T09:20:14.633Z,14.10
2023-02-28T09:22:48.225Z,14.40
2023-02-28T09:25:21.673Z,15.00
2023-02-28T09:27:54.701Z,14.10
2023-02-28T09:30:27.780Z,13.90
2023-02-28T09:33:01.959Z,12.50
2023-02-28T09:35:35.065Z,14.10
2023-02-28T09:38:08.842Z,14.40
2023-02-28T09:40:48.463Z,13.00
2023-02-28T09:43:22.622Z,14.60
2023-02-28T09:46:02.078Z,12.60
2023-02-28T09:48:40.043Z,13.70
2023-02-28T09:51:18.433Z,16.40
2023-02-28T09:53:56.652Z,15.90
2023-02-28T09:56:38.758Z,19.80
2023-02-28T09:59:17.689Z,13.80
2023-02-28T10:01:54.187Z,14.90
2023-02-28T10:04:37.770Z,16.30
2023-02-28T10:07:19.254Z,16.90
2023-02-28T10:09:54.796Z,15.80
2023-02-28T10:12:27.859Z,14.90
2023-02-28T10:15:01.570Z,15.00
2023-02-28T10:17:49.333Z,15.20
2023-02-28T10:20:32.356Z,14.90
2023-02-28T10:23:11.630Z,17.90
2023-02-28T10:25:49.258Z,18.00
2023-02-28T10:28:22.336Z,20.60
2023-02-28T10:30:56.257Z,19.30
2023-02-28T10:33:32.677Z,24.10
2023-02-28T10:36:07.955Z,25.00
2023-02-28T10:38:41.895Z,31.50
2023-02-28T10:41:16.117Z,25.10
2023-02-28T10:43:48.735Z,25.30
2023-02-28T10:46:28.120Z,30.40
2023-02-28T10:49:07.998Z,39.60
2023-02-28T10:51:42.804Z,49.40
2023-02-28T10:54:23.315Z,45.40
2023-02-28T10:57:17.363Z,51.50
2023-02-28T10:59:50.585Z,56.50
2023-02-28T11:02:36.816Z,45.60
2023-02-28T11:05:28.157Z,55.10
2023-02-28T11:08:06.182Z,56.80
2023-02-28T11:10:39.190Z,52.50
2023-02-28T11:13:21.739Z,51.70
2023-02-28T11:15:59.172Z,49.80
2023-02-28T11:18:33.721Z,59.20
2023-02-28T11:21:06.942Z,53.90
2023-02-28T11:23:42.540Z,55.80
2023-02-28T11:26:15.632Z,54.80
2023-02-28T11:28:49.021Z,46.60
2023-02-28T11:31:23.719Z,41.80
2023-02-28T11:33:57.664Z,43.40
2023-02-28T11:36:31.715Z,41.40
2023-02-28T11:39:10.450Z,32.30
2023-02-28T11:41:53.310Z,35.60
2023-02-28T11:44:34.359Z,24.90
2023-02-28T11:47:12.062Z,20.30
2023-02-28T11:49:48.647Z,19.30
2023-02-28T11:52:28.868Z,23.60
2023-02-28T11:55:17.363Z,20.70
2023-02-28T11:58:12.603Z,18.50
2023-02-28T12:00:52.611Z,16.30
2023-02-28T12:03:32.380Z,15.50
2023-02-28T12:06:16.315Z,16.20
2023-02-28T12:08:54.038Z,14.80
2023-02-28T12:11:37.970Z,15.90
2023-02-28T12:14:33.615Z,20.30
2023-02-28T12:17:14.944Z,17.00
2023-02-28T12:19:50.228Z,15.70
2023-02-28T12:22:34.488Z,16.10
2023-02-28T12:25:38.721Z,16.50
2023-02-28T12:28:12.560Z,17.50
2023-02-28T12:30:52.174Z,17.90
2023-02-28T12:33:31.438Z,17.30
2023-02-28T12:36:11.355Z,16.70
2023-02-28T12:39:01.766Z,13.00
2023-02-28T12:41:39.452Z,16.60
2023-02-28T12:44:20.100Z,15.60
2023-02-28T12:46:54.203Z,15.20
2023-02-28T12:49:32.128Z,13.60
2023-02-28T12:52:06.405Z,13.20
2023-02-28T12:54:40.673Z,15.10
2023-02-28T12:57:17.954Z,12.50
2023-02-28T12:59:53.173Z,12.80
2023-02-28T13:02:45.684Z,14.60
2023-02-28T13:05:49.250Z,14.20
2023-02-28T13:08:33.435Z,12.20
2023-02-28T13:11:13.108Z,13.90
2023-02-28T13:13:55.395Z,13.20
2023-02-28T13:16:28.208Z,13.30
2023-02-28T13:19:15.471Z,12.80
2023-02-28T13:21:49.952Z,15.00
2023-02-28T13:24:42.055Z,13.60
2023-02-28T13:27:27.187Z,13.90
2023-02-28T13:30:00.396Z,13.30
2023-02-28T13:32:40.818Z,14.00
2023-02-28T13:35:47.472Z,13.30
2023-02-28T13:38:37.245Z,13.00
2023-02-28T13:41:46.762Z,14.40
2023-02-28T13:44:24.175Z,14.30
2023-02-28T13:47:25.991Z,14.80
2023-02-28T13:49:59.229Z,14.20
2023-02-28T13:52:32.576Z,13.80
2023-02-28T13:55:30.616Z,12.80
2023-02-28T13:58:13.969Z,13.70
2023-02-28T14:01:05.722Z,14.80
2023-02-28T14:03:47.408Z,13.80
2023-02-28T14:08:57.958Z,13.20
2023-02-28T14:11:34.427Z,15.80
2023-02-28T14:14:07.770Z,21.30
2023-02-28T14:16:43.930Z,13.90
2023-02-28T14:19:22.013Z,15.30
2023-02-28T14:22:05.401Z,15.70
2023-02-28T14:24:54.260Z,13.20
2023-02-28T14:27:43.448Z,15.00
2023-02-28T14:30:48.593Z,13.60
2023-02-28T14:33:41.210Z,12.90
2023-02-28T14:36:21.742Z,12.70
2023-02-28T14:38:56.048Z,13.80
2023-02-28T14:41:36.587Z,14.80
2023-02-28T14:44:19.997Z,13.60
2023-02-28T14:46:54.814Z,17.10
2023-02-28T14:49:28.674Z,16.50
2023-02-28T14:52:11.239Z,16.90
2023-02-28T14:54:44.184Z,23.30
2023-02-28T14:57:27.281Z,17.00
2023-02-28T15:00:13.172Z,19.30
2023-02-28T15:02:47.017Z,17.60
2023-02-28T15:05:28.548Z,16.30
2023-02-28T15:08:13.360Z,17.00
2023-02-28T15:10:47.063Z,19.00
2023-02-28T15:13:19.903Z,15.50
2023-02-28T15:16:03.866Z,14.70
2023-02-28T15:18:49.292Z,18.80
2023-02-28T15:21:22.709Z,18.70
2023-02-28T15:23:56.422Z,15.00
2023-02-28T15:26:30.120Z,15.80
2023-02-28T15:29:06.354Z,17.10
2023-02-28T15:31:56.483Z,16.80
2023-02-28T15:34:42.225Z,16.00
2023-02-28T15:37:40.841Z,15.70
2023-02-28T15:40:19.277Z,21.20
2023-02-28T15:43:08.696Z,19.10
2023-02-28T15:45:43.310Z,20.30
2023-02-28T15:48:21.501Z,18.10
2023-02-28T15:50:56.212Z,15.40
2023-02-28T15:53:33.685Z,17.50
2023-02-28T15:56:09.731Z,17.90
2023-02-28T15:58:43.740Z,18.30
2023-02-28T16:01:26.275Z,17.60
2023-02-28T16:03:59.746Z,17.70
2023-02-28T16:06:43.290Z,17.50
2023-02-28T16:09:20.795Z,18.90
2023-02-28T16:11:55.354Z,15.10
2023-02-28T16:14:31.559Z,16.40
2023-02-28T16:17:10.028Z,18.20
2023-02-28T16:19:43.297Z,17.70
2023-02-28T16:22:16.876Z,14.90
2023-02-28T16:24:50.843Z,13.20
2023-02-28T16:27:27.675Z,16.40
2023-02-28T16:30:00.561Z,15.60
2023-02-28T16:32:34.118Z,14.10
2023-02-28T16:35:12.202Z,20.10
2023-02-28T16:37:45.109Z,21.50
2023-02-28T16:40:22.257Z,17.80
2023-02-28T16:42:56.605Z,23.10
2023-02-28T16:45:30.477Z,22.50
2023-02-28T16:48:04.325Z,21.30
2023-02-28T16:50:37.846Z,22.00
2023-02-28T16:53:10.773Z,17.70
2023-02-28T16:55:44.704Z,19.70
2023-02-28T16:58:20.519Z,18.80
2023-02-28T17:00:54.527Z,19.20
2023-02-28T17:03:34.019Z,19.90
2023-02-28T17:06:08.352Z,21.10
2023-02-28T17:08:41.853Z,21.60
2023-02-28T17:11:14.615Z,19.20
2023-02-28T17:13:47.456Z,19.60
2023-02-28T17:16:25.365Z,19.90
2023-02-28T17:18:59.548Z,20.90
2023-02-28T17:21:32.685Z,22.70
2023-02-28T17:24:07.041Z,33.00
2023-02-28T17:26:39.746Z,22.70
2023-02-28T17:29:18.273Z,24.60
2023-02-28T17:31:52.123Z,28.40
2023-02-28T17:34:24.864Z,23.60
2023-02-28T17:36:59.089Z,23.70
2023-02-28T17:39:32.170Z,29.40
2023-02-28T17:42:05.151Z,25.10
2023-02-28T17:44:39.840Z,28.90
2023-02-28T17:47:14.419Z,28.40
2023-02-28T17:49:47.969Z,21.60
2023-02-28T17:52:23.201Z,26.40
2023-02-28T17:54:56.868Z,22.30
2023-02-28T17:57:30.064Z,19.60
2023-02-28T18:00:07.836Z,18.70
2023-02-28T18:02:49.969Z,18.90
2023-02-28T18:05:24.920Z,14.60
2023-02-28T18:07:58.332Z,18.00
2023-02-28T18:10:34.414Z,15.70
2023-02-28T18:13:07.959Z,14.50
2023-02-28T18:15:41.083Z,17.90
2023-02-28T18:18:15.717Z,15.30
2023-02-28T18:20:51.080Z,14.80
2023-02-28T18:23:24.891Z,14.20
2023-02-28T18:25:59.301Z,18.70
2023-02-28T18:28:35.024Z,14.10
2023-02-28T18:31:12.801Z,14.50
2023-02-28T18:33:46.012Z,17.00
2023-02-28T18:36:18.850Z,18.40
2023-02-28T18:38:52.025Z,15.60
2023-02-28T18:41:26.485Z,21.70
2023-02-28T18:44:01.279Z,24.70
2023-02-28T18:46:36.488Z,24.50
2023-02-28T18:49:09.180Z,19.60
2023-02-28T18:51:45.550Z,19.00
2023-02-28T18:54:19.474Z,19.90
2023-02-28T18:56:54.340Z,17.80
2023-02-28T18:59:27.636Z,18.60
2023-02-28T19:02:00.708Z,21.70
2023-02-28T19:04:33.801Z,24.30
2023-02-28T19:07:11.074Z,19.70
2023-02-28T19:09:47.797Z,20.80
2023-02-28T19:12:20.906Z,23.80
2023-02-28T19:14:55.584Z,22.70
2023-02-28T19:17:28.784Z,20.50
2023-02-28T19:20:01.946Z,22.40
2023-02-28T19:22:35.083Z,22.40
2023-02-28T19:25:09.537Z,22.20
2023-02-28T19:27:43.028Z,24.00
2023-02-28T19:30:16.612Z,25.70
2023-02-28T19:32:49.757Z,24.60
2023-02-28T19:35:22.528Z,24.60
2023-02-28T19:37:55.584Z,26.40
2023-02-28T19:40:28.320Z,29.20
2023-02-28T19:43:05.391Z,34.30
2023-02-28T19:45:42.279Z,29.10
2023-02-28T19:48:15.535Z,34.60
2023-02-28T19:50:48.394Z,37.30
2023-02-28T19:53:21.797Z,28.60
2023-02-28T19:55:54.967Z,28.90
2023-02-28T19:58:29.054Z,32.30
2023-02-28T20:01:08.807Z,32.80
2023-02-28T20:03:42.644Z,30.70
2023-02-28T20:06:15.846Z,32.40
2023-02-28T20:08:49.248Z,35.50
2023-02-28T20:11:24.306Z,35.90
2023-02-28T20:14:00.844Z,33.90
2023-02-28T20:16:35.063Z,37.20
2023-02-28T20:19:08.434Z,33.90
2023-02-28T20:21:44.440Z,37.30
2023-02-28T20:24:21.297Z,40.20
2023-02-28T20:26:54.369Z,44.60
2023-02-28T20:29:27.563Z,41.60
2023-02-28T20:32:01.005Z,39.10
2023-02-28T20:34:34.327Z,35.90
2023-02-28T20:37:07.218Z,37.60
2023-02-28T20:39:40.453Z,37.70
2023-02-28T20:42:13.354Z,39.80
2023-02-28T20:44:46.304Z,40.00
2023-02-28T20:47:19.868Z,38.60
2023-02-28T20:49:53.594Z,39.00
2023-02-28T20:52:26.427Z,35.70
2023-02-28T20:54:59.549Z,37.30
2023-02-28T20:57:33.454Z,41.30
2023-02-28T21:00:09.605Z,44.10
2023-02-28T21:02:44.516Z,39.20
2023-02-28T21:05:18.139Z,40.10
2023-02-28T21:07:51.078Z,42.20
2023-02-28T21:10:24.458Z,41.80
2023-02-28T21:12:58.323Z,46.80
2023-02-28T21:15:31.271Z,43.50
2023-02-28T21:18:04.664Z,45.60
2023-02-28T21:20:37.635Z,44.40
2023-02-28T21:23:12.515Z,42.30
2023-02-28T21:25:45.930Z,44.40
2023-02-28T21:28:23.656Z,38.80
2023-02-28T21:30:56.514Z,49.30
2023-02-28T21:33:30.419Z,53.80
2023-02-28T21:36:07.658Z,59.70
2023-02-28T21:38:40.998Z,61.70
2023-02-28T21:41:14.476Z,61.60
2023-02-28T21:43:48.083Z,65.40
2023-02-28T21:46:24.606Z,53.90
2023-02-28T21:48:57.638Z,51.30
2023-02-28T21:51:31.645Z,58.10
2023-02-28T21:54:04.902Z,55.30
2023-02-28T21:56:37.706Z,58.40
2023-02-28T21:59:11.408Z,65.00
2023-02-28T22:01:45.081Z,79.90
2023-02-28T22:04:22.771Z,74.80
2023-02-28T22:06:58.671Z,75.30
2023-02-28T22:09:32.511Z,68.50
2023-02-28T22:12:08.674Z,76.90
2023-02-28T22:14:45.570Z,77.40
2023-02-28T22:17:19.191Z,76.60
2023-02-28T22:19:52.538Z,79.40
2023-02-28T22:22:28.792Z,69.00
2023-02-28T22:25:01.714Z,67.60
2023-02-28T22:27:34.741Z,68.70
2023-02-28T22:30:08.754Z,66.90
2023-02-28T22:32:41.927Z,67.10
2023-02-28T22:35:14.713Z,78.40
2023-02-28T22:37:47.878Z,75.20
2023-02-28T22:40:21.314Z,82.20
2023-02-28T22:42:55.605Z,73.90
2023-02-28T22:45:28.725Z,66.00
2023-02-28T22:48:02.201Z,63.80
2023-02-28T22:50:35.347Z,63.50
2023-02-28T22:53:08.218Z,62.00
2023-02-28T22:55:41.257Z,52.50
2023-02-28T22:58:14.331Z,58.80
2023-02-28T23:00:47.197Z,76.40
2023-02-28T23:03:21.170Z,71.10
2023-02-28T23:05:54.305Z,67.70
2023-02-28T23:08:27.069Z,58.90
2023-02-28T23:11:01.072Z,64.70
2023-02-28T23:13:33.827Z,75.20
2023-02-28T23:16:10.816Z,67.40
2023-02-28T23:18:43.582Z,63.00
2023-02-28T23:21:16.304Z,63.60
2023-02-28T23:23:49.040Z,67.50
2023-02-28T23:26:21.844Z,61.00
2023-02-28T23:28:54.581Z,52.70
2023-02-28T23:31:27.412Z,51.30
2023-02-28T23:34:00.782Z,57.50
2023-02-28T23:36:37.216Z,60.80
2023-02-28T23:39:10.228Z,58.60
2023-02-28T23:41:43.124Z,60.00
2023-02-28T23:44:17.272Z,55.70
2023-02-28T23:46:51.653Z,54.20
2023-02-28T23:49:24.565Z,49.90
2023-02-28T23:51:57.880Z,46.90
2023-02-28T23:54:35.185Z,41.80
2023-02-28T23:57:08.772Z,44.70
